Terminal Aerodrome Forecast
Issued by NWS Boise, ID

Home | Current Version | Previous Version | Text Only | Print | Product List | Glossary On
Versions: 1 2 3 4 5 6 7 8 9 10 11 12 13 14 15 16 17 18 19 20 21 22 23 24 25 26
000
FTUS45 KBOI 261140
TAFBOI
TAF
KBOI 261140Z 2612/2712 13011KT P6SM SCT200
     FM262000 14011KT P6SM VCSH OVC050
      TEMPO 2621/2623 19010G17KT P6SM -SHRA OVC035
     FM270700 VRB06KT 6SM -SHRA BR OVC020=

USA.gov is the U.S. government's official web portal to all federal, state and local government web resources and services.